Old Hamilton, Mississippi
Current Conditions -  °F | °C
As of 9:35 AM on Friday 24 Oct 2014 (Local Time) from KM40 Reporting Station
Clear Clear  
Wind Chill: 59°   Ceiling: Unl
Heat Index: 59°   Visibility: 9mi
Dew Point: 43°   Wind: 6mph
Humidity: 55%   Direction: 360°N
Pressure: 30.16"   Gusts: NA
Location:  33.804°N, 88.4339°W
Report Text: KM40 241435Z AUTO 36005KT 9SM CLR 15/06 A3016 RMK AO2
Loading
Personal Weather Stations






























Interactive Weather Map
Tropical Storm Tracking
New forecast layout! Learn more

10-Day Weather Forecast

Advertisements
Track Severe Weather on mobile